createdAt,value
2023-06-29T00:00:05.222Z,95281.00
2023-06-29T00:01:05.346Z,95282.00
2023-06-29T00:02:05.368Z,95285.00
2023-06-29T00:03:05.434Z,95282.00
2023-06-29T00:04:05.474Z,95280.00
2023-06-29T00:05:05.509Z,95284.00
2023-06-29T00:06:05.548Z,95281.00
2023-06-29T00:07:05.594Z,95281.00
2023-06-29T00:08:05.604Z,95279.00
2023-06-29T00:09:05.657Z,95279.00
2023-06-29T00:10:05.703Z,95277.00
2023-06-29T00:11:05.869Z,95279.00
2023-06-29T00:12:05.818Z,95279.00
2023-06-29T00:13:05.916Z,95279.00
2023-06-29T00:14:05.936Z,95280.00
2023-06-29T00:15:05.986Z,95279.00
2023-06-29T00:16:06.131Z,95279.00
2023-06-29T00:17:06.105Z,95280.00
2023-06-29T00:18:06.179Z,95280.00
2023-06-29T00:19:06.188Z,95278.00
2023-06-29T00:20:06.295Z,95277.00
2023-06-29T00:21:06.291Z,95277.00
2023-06-29T00:22:06.333Z,95276.00
2023-06-29T00:23:06.412Z,95274.00
2023-06-29T00:24:06.463Z,95274.00
2023-06-29T00:25:06.493Z,95272.00
2023-06-29T00:26:06.561Z,95272.00
2023-06-29T00:27:06.607Z,95273.00
2023-06-29T00:28:06.666Z,95272.00
2023-06-29T00:29:06.690Z,95274.00
2023-06-29T00:30:06.732Z,95273.00
2023-06-29T00:31:06.853Z,95276.00
2023-06-29T00:32:06.842Z,95277.00
2023-06-29T00:33:06.918Z,95276.00
2023-06-29T00:34:06.946Z,95275.00
2023-06-29T00:35:07.035Z,95274.00
2023-06-29T00:36:07.063Z,95272.00
2023-06-29T00:37:07.102Z,95270.00
2023-06-29T00:38:07.182Z,95271.00
2023-06-29T00:39:07.235Z,95269.00
2023-06-29T00:40:07.289Z,95268.00
2023-06-29T00:41:07.375Z,95268.00
2023-06-29T00:42:07.414Z,95267.00
2023-06-29T00:43:07.476Z,95270.00
2023-06-29T00:44:07.540Z,95271.00
2023-06-29T00:45:07.569Z,95269.00
2023-06-29T00:46:07.689Z,95268.00
2023-06-29T00:47:07.757Z,95270.00
2023-06-29T00:48:07.882Z,95267.00
2023-06-29T00:49:07.836Z,95269.00
2023-06-29T00:50:07.895Z,95269.00
2023-06-29T00:51:07.940Z,95270.00
2023-06-29T00:52:08.024Z,95269.00
2023-06-29T00:53:08.060Z,95271.00
2023-06-29T00:54:08.123Z,95268.00
2023-06-29T00:55:08.201Z,95268.00
2023-06-29T00:56:08.233Z,95268.00
2023-06-29T00:57:08.322Z,95266.00
2023-06-29T00:58:08.360Z,95268.00
2023-06-29T00:59:08.433Z,95266.00
2023-06-29T01:00:08.488Z,95265.00
2023-06-29T01:01:08.579Z,95263.00
2023-06-29T01:02:08.613Z,95263.00
2023-06-29T01:03:08.745Z,95261.00
2023-06-29T01:04:08.722Z,95263.00
2023-06-29T01:05:08.768Z,95263.00
2023-06-29T01:06:08.854Z,95259.00
2023-06-29T01:07:08.984Z,95260.00
2023-06-29T01:08:08.976Z,95257.00
2023-06-29T01:09:09.044Z,95257.00
2023-06-29T01:10:09.091Z,95259.00
2023-06-29T01:11:09.128Z,95256.00
2023-06-29T01:12:09.223Z,95260.00
2023-06-29T01:13:09.287Z,95257.00
2023-06-29T01:14:09.333Z,95259.00
2023-06-29T01:15:09.400Z,95258.00
2023-06-29T01:16:10.555Z,95257.00
2023-06-29T01:17:09.519Z,95260.00
2023-06-29T01:18:09.635Z,95257.00
2023-06-29T01:19:09.649Z,95256.00
2023-06-29T01:20:09.732Z,95257.00
2023-06-29T01:21:09.758Z,95256.00
2023-06-29T01:22:09.827Z,95255.00
2023-06-29T01:23:09.871Z,95255.00
2023-06-29T01:24:09.957Z,95251.00
2023-06-29T01:25:10.011Z,95252.00
2023-06-29T01:26:10.065Z,95252.00
2023-06-29T01:27:10.133Z,95252.00
2023-06-29T01:28:10.482Z,95252.00
2023-06-29T01:29:10.273Z,95251.00
2023-06-29T01:30:10.304Z,95251.00
2023-06-29T01:31:10.349Z,95251.00
2023-06-29T01:32:10.410Z,95250.00
2023-06-29T01:33:10.479Z,95250.00
2023-06-29T01:34:10.578Z,95248.00
2023-06-29T01:35:10.632Z,95249.00
2023-06-29T01:36:10.684Z,95247.00
2023-06-29T01:37:10.723Z,95247.00
2023-06-29T01:38:10.802Z,95245.00
2023-06-29T01:39:10.869Z,95244.00
2023-06-29T01:40:10.912Z,95242.00
2023-06-29T01:41:10.990Z,95241.00
2023-06-29T01:42:11.048Z,95241.00
2023-06-29T01:43:11.104Z,95244.00
2023-06-29T01:44:11.161Z,95244.00
2023-06-29T01:45:11.215Z,95243.00
2023-06-29T01:46:11.307Z,95241.00
2023-06-29T01:47:11.331Z,95240.00
2023-06-29T01:48:11.395Z,95242.00
2023-06-29T01:49:11.479Z,95241.00
2023-06-29T01:50:11.516Z,95238.00
2023-06-29T01:51:11.561Z,95238.00
2023-06-29T01:52:11.642Z,95240.00
2023-06-29T01:53:12.000Z,95237.00
2023-06-29T01:54:11.750Z,95238.00
2023-06-29T01:55:11.807Z,95235.00
2023-06-29T01:56:11.875Z,95233.00
2023-06-29T01:57:11.942Z,95235.00
2023-06-29T01:58:12.008Z,95233.00
2023-06-29T01:59:12.078Z,95234.00
2023-06-29T02:00:12.142Z,95232.00
2023-06-29T02:01:12.173Z,95233.00
2023-06-29T02:02:12.196Z,95231.00
2023-06-29T02:03:12.358Z,95229.00
2023-06-29T02:04:12.309Z,95228.00
2023-06-29T02:05:12.346Z,95229.00
2023-06-29T02:06:12.402Z,95227.00
2023-06-29T02:07:12.516Z,95228.00
2023-06-29T02:08:12.486Z,95229.00
2023-06-29T02:09:12.509Z,95229.00
2023-06-29T02:10:12.588Z,95229.00
2023-06-29T02:11:12.616Z,95226.00
2023-06-29T02:12:12.620Z,95226.00
2023-06-29T02:13:12.677Z,95227.00
2023-06-29T02:14:12.708Z,95228.00
2023-06-29T02:15:12.724Z,95227.00
2023-06-29T02:16:12.897Z,95226.00
2023-06-29T02:17:12.841Z,95229.00
2023-06-29T02:18:12.870Z,95228.00
2023-06-29T02:19:12.868Z,95226.00
2023-06-29T02:20:12.938Z,95223.00
2023-06-29T02:21:12.961Z,95223.00
2023-06-29T02:22:13.010Z,95224.00
2023-06-29T02:23:13.023Z,95223.00
2023-06-29T02:24:12.994Z,95221.00
2023-06-29T02:25:12.984Z,95221.00
2023-06-29T02:26:13.033Z,95223.00
2023-06-29T02:27:13.063Z,95223.00
2023-06-29T02:28:13.083Z,95222.00
2023-06-29T02:29:13.137Z,95223.00
2023-06-29T02:30:13.144Z,95224.00
2023-06-29T02:31:13.186Z,95224.00
2023-06-29T02:32:13.221Z,95224.00
2023-06-29T02:33:13.263Z,95223.00
2023-06-29T02:34:13.256Z,95223.00
2023-06-29T02:35:13.325Z,95223.00
2023-06-29T02:36:13.311Z,95220.00
2023-06-29T02:37:13.361Z,95222.00
2023-06-29T02:38:13.353Z,95222.00
2023-06-29T02:39:13.360Z,95224.00
2023-06-29T02:40:13.354Z,95225.00
2023-06-29T02:41:13.387Z,95226.00
2023-06-29T02:42:13.406Z,95228.00
2023-06-29T02:43:13.393Z,95229.00
2023-06-29T02:44:13.408Z,95230.00
2023-06-29T02:45:13.407Z,95229.00
2023-06-29T02:46:13.487Z,95229.00
2023-06-29T02:47:13.417Z,95229.00
2023-06-29T02:48:13.415Z,95227.00
2023-06-29T02:49:13.440Z,95228.00
2023-06-29T02:50:13.418Z,95229.00
2023-06-29T02:51:13.450Z,95228.00
2023-06-29T02:52:13.397Z,95228.00
2023-06-29T02:53:13.392Z,95231.00
2023-06-29T02:54:13.430Z,95231.00
2023-06-29T02:55:13.380Z,95230.00
2023-06-29T02:56:13.385Z,95232.00
2023-06-29T02:57:13.368Z,95229.00
2023-06-29T02:58:13.380Z,95228.00
2023-06-29T02:59:13.379Z,95229.00
2023-06-29T03:00:13.334Z,95229.00
2023-06-29T03:01:13.390Z,95230.00
2023-06-29T03:02:13.362Z,95229.00
2023-06-29T03:03:13.449Z,95229.00
2023-06-29T03:04:13.367Z,95232.00
2023-06-29T03:05:13.358Z,95234.00
2023-06-29T03:06:13.364Z,95234.00
2023-06-29T03:07:13.388Z,95235.00
2023-06-29T03:08:13.368Z,95234.00
2023-06-29T03:09:13.328Z,95235.00
2023-06-29T03:10:13.381Z,95237.00
2023-06-29T03:11:13.373Z,95235.00
2023-06-29T03:12:13.349Z,95235.00
2023-06-29T03:13:13.324Z,95235.00
2023-06-29T03:14:13.376Z,95233.00
2023-06-29T03:15:13.346Z,95236.00
2023-06-29T03:16:13.352Z,95234.00
2023-06-29T03:17:13.376Z,95233.00
2023-06-29T03:18:13.359Z,95235.00
2023-06-29T03:19:13.346Z,95233.00
2023-06-29T03:20:13.314Z,95233.00
2023-06-29T03:21:18.381Z,95233.00
2023-06-29T03:22:14.287Z,95235.00
2023-06-29T03:23:13.287Z,95232.00
2023-06-29T03:24:13.331Z,95233.00
2023-06-29T03:25:13.310Z,95232.00
2023-06-29T03:26:13.295Z,95233.00
2023-06-29T03:27:13.295Z,95231.00
2023-06-29T03:28:13.262Z,95231.00
2023-06-29T03:29:13.266Z,95229.00
2023-06-29T03:30:13.264Z,95230.00
2023-06-29T03:31:13.347Z,95230.00
2023-06-29T03:32:13.229Z,95227.00
2023-06-29T03:33:13.247Z,95228.00
2023-06-29T03:34:13.244Z,95227.00
2023-06-29T03:35:13.221Z,95228.00
2023-06-29T03:36:13.228Z,95230.00
2023-06-29T03:37:13.241Z,95230.00
2023-06-29T03:38:13.224Z,95231.00
2023-06-29T03:39:13.181Z,95233.00
2023-06-29T03:40:13.203Z,95231.00
2023-06-29T03:41:13.186Z,95231.00
2023-06-29T03:42:13.194Z,95231.00
2023-06-29T03:43:13.167Z,95233.00
2023-06-29T03:44:13.188Z,95231.00
2023-06-29T03:45:13.171Z,95232.00
2023-06-29T03:46:13.145Z,95233.00
2023-06-29T03:47:13.132Z,95234.00
2023-06-29T03:48:13.227Z,95234.00
2023-06-29T03:49:13.116Z,95234.00
2023-06-29T03:50:13.139Z,95234.00
2023-06-29T03:51:13.131Z,95235.00
2023-06-29T03:52:13.077Z,95233.00
2023-06-29T03:53:13.105Z,95233.00
2023-06-29T03:54:13.091Z,95234.00
2023-06-29T03:55:13.069Z,95232.00
2023-06-29T03:56:13.081Z,95231.00
2023-06-29T03:57:13.076Z,95232.00
2023-06-29T03:58:13.078Z,95233.00
2023-06-29T03:59:13.052Z,95234.00
2023-06-29T04:00:13.048Z,95234.00
2023-06-29T04:01:13.071Z,95233.00
2023-06-29T04:02:13.076Z,95234.00
2023-06-29T04:03:13.079Z,95234.00
2023-06-29T04:04:13.037Z,95233.00
2023-06-29T04:05:13.001Z,95232.00
2023-06-29T04:06:13.020Z,95230.00
2023-06-29T04:07:13.041Z,95231.00
2023-06-29T04:08:12.994Z,95231.00
2023-06-29T04:09:12.980Z,95231.00
2023-06-29T04:10:13.002Z,95228.00
2023-06-29T04:11:12.959Z,95231.00
2023-06-29T04:12:12.985Z,95230.00
2023-06-29T04:13:12.957Z,95230.00
2023-06-29T04:14:12.951Z,95231.00
2023-06-29T04:15:12.932Z,95230.00
2023-06-29T04:16:13.017Z,95231.00
2023-06-29T04:17:12.948Z,95233.00
2023-06-29T04:18:12.956Z,95232.00
2023-06-29T04:19:13.796Z,95231.00
2023-06-29T04:20:13.146Z,95230.00
2023-06-29T04:21:13.150Z,95227.00
2023-06-29T04:22:13.128Z,95227.00
2023-06-29T04:23:13.176Z,95226.00
2023-06-29T04:24:13.196Z,95228.00
2023-06-29T04:25:13.151Z,95228.00
2023-06-29T04:26:13.179Z,95229.00
2023-06-29T04:27:13.171Z,95227.00
2023-06-29T04:28:13.192Z,95228.00
2023-06-29T04:29:13.192Z,95227.00
2023-06-29T04:30:13.188Z,95229.00
2023-06-29T04:31:13.294Z,95228.00
2023-06-29T04:32:13.268Z,95228.00
2023-06-29T04:33:13.197Z,95228.00
2023-06-29T04:34:13.223Z,95229.00
2023-06-29T04:35:13.481Z,95228.00
2023-06-29T04:36:13.238Z,95226.00
2023-06-29T04:37:13.201Z,95228.00
2023-06-29T04:38:13.199Z,95227.00
2023-06-29T04:39:13.183Z,95226.00
2023-06-29T04:40:13.232Z,95225.00
2023-06-29T04:41:13.242Z,95225.00
2023-06-29T04:42:13.240Z,95224.00
2023-06-29T04:43:13.246Z,95222.00
2023-06-29T04:44:13.249Z,95222.00
2023-06-29T04:45:13.262Z,95223.00
2023-06-29T04:46:13.266Z,95223.00
2023-06-29T04:47:13.275Z,95222.00
2023-06-29T04:48:13.282Z,95223.00
2023-06-29T04:49:13.319Z,95221.00
2023-06-29T04:50:13.253Z,95223.00
2023-06-29T04:51:13.330Z,95222.00
2023-06-29T04:52:13.311Z,95219.00
2023-06-29T04:53:13.328Z,95218.00
2023-06-29T04:54:13.309Z,95215.00
2023-06-29T04:55:13.335Z,95213.00
2023-06-29T04:56:13.345Z,95214.00
2023-06-29T04:57:13.350Z,95213.00
2023-06-29T04:58:13.347Z,95212.00
2023-06-29T04:59:13.319Z,95211.00
2023-06-29T05:00:13.370Z,95212.00
2023-06-29T05:01:13.380Z,95214.00
2023-06-29T05:02:13.414Z,95215.00
2023-06-29T05:03:13.533Z,95215.00
2023-06-29T05:04:13.385Z,95214.00
2023-06-29T05:05:13.400Z,95212.00
2023-06-29T05:06:13.387Z,95210.00
2023-06-29T05:07:13.386Z,95211.00
2023-06-29T05:08:13.426Z,95209.00
2023-06-29T05:09:13.403Z,95207.00
2023-06-29T05:10:20.439Z,95208.00
2023-06-29T05:11:13.408Z,95208.00
2023-06-29T05:12:13.408Z,95204.00
2023-06-29T05:13:13.397Z,95204.00
2023-06-29T05:14:13.375Z,95203.00
2023-06-29T05:15:13.409Z,95201.00
2023-06-29T05:16:13.347Z,95199.00
2023-06-29T05:17:13.399Z,95198.00
2023-06-29T05:18:13.369Z,95196.00
2023-06-29T05:19:13.340Z,95196.00
2023-06-29T05:20:13.352Z,95194.00
2023-06-29T05:21:13.313Z,95192.00
2023-06-29T05:22:13.304Z,95192.00
2023-06-29T05:23:13.337Z,95191.00
2023-06-29T05:24:13.337Z,95193.00
2023-06-29T05:25:13.331Z,95190.00
2023-06-29T05:26:13.342Z,95190.00
2023-06-29T05:27:13.294Z,95190.00
2023-06-29T05:28:13.299Z,95186.00
2023-06-29T05:29:13.280Z,95185.00
2023-06-29T05:30:13.298Z,95184.00
2023-06-29T05:31:15.539Z,95185.00
2023-06-29T05:32:13.257Z,95186.00
2023-06-29T05:33:13.274Z,95187.00
2023-06-29T05:34:13.243Z,95185.00
2023-06-29T05:35:13.280Z,95184.00
2023-06-29T05:36:13.209Z,95186.00
2023-06-29T05:37:13.233Z,95180.00
2023-06-29T05:38:13.223Z,95183.00
2023-06-29T05:39:13.229Z,95177.00
2023-06-29T05:40:13.211Z,95179.00
2023-06-29T05:41:13.194Z,95177.00
2023-06-29T05:42:13.223Z,95178.00
2023-06-29T05:43:13.201Z,95177.00
2023-06-29T05:44:13.148Z,95174.00
2023-06-29T05:45:13.188Z,95176.00
2023-06-29T05:46:13.157Z,95175.00
2023-06-29T05:47:13.146Z,95177.00
2023-06-29T05:48:13.140Z,95175.00
2023-06-29T05:49:13.128Z,95174.00
2023-06-29T05:50:13.129Z,95172.00
2023-06-29T05:51:13.121Z,95173.00
2023-06-29T05:52:13.137Z,95174.00
2023-06-29T05:53:13.139Z,95170.00
2023-06-29T05:54:13.087Z,95175.00
2023-06-29T05:55:13.115Z,95174.00
2023-06-29T05:56:13.065Z,95175.00
2023-06-29T05:57:13.088Z,95173.00
2023-06-29T05:58:13.115Z,95171.00
2023-06-29T05:59:13.063Z,95171.00
2023-06-29T06:00:13.074Z,95171.00
2023-06-29T06:01:13.090Z,95169.00
2023-06-29T06:02:13.046Z,95171.00
2023-06-29T06:03:13.115Z,95172.00
2023-06-29T06:04:13.071Z,95172.00
2023-06-29T06:05:13.047Z,95171.00
2023-06-29T06:06:13.029Z,95167.00
2023-06-29T06:07:13.061Z,95167.00
2023-06-29T06:08:15.624Z,95165.00
2023-06-29T06:09:13.045Z,95162.00
2023-06-29T06:10:12.997Z,95161.00
2023-06-29T06:11:13.035Z,95162.00
2023-06-29T06:12:12.973Z,95162.00
2023-06-29T06:13:13.007Z,95161.00
2023-06-29T06:14:12.966Z,95162.00
2023-06-29T06:15:12.990Z,95165.00
2023-06-29T06:16:12.966Z,95165.00
2023-06-29T06:17:12.957Z,95164.00
2023-06-29T06:18:13.002Z,95164.00
2023-06-29T06:19:12.970Z,95161.00
2023-06-29T06:20:12.932Z,95162.00
2023-06-29T06:21:12.930Z,95158.00
2023-06-29T06:22:12.953Z,95160.00
2023-06-29T06:23:12.903Z,95158.00
2023-06-29T06:24:12.922Z,95159.00
2023-06-29T06:25:12.922Z,95157.00
2023-06-29T06:26:12.908Z,95157.00
2023-06-29T06:27:12.902Z,95158.00
2023-06-29T06:28:12.892Z,95157.00
2023-06-29T06:29:12.879Z,95157.00
2023-06-29T06:30:12.857Z,95158.00
2023-06-29T06:31:24.392Z,95156.00
2023-06-29T06:32:13.951Z,95156.00
2023-06-29T06:33:12.866Z,95155.00
2023-06-29T06:34:12.838Z,95154.00
2023-06-29T06:35:12.841Z,95152.00
2023-06-29T06:36:12.811Z,95150.00
2023-06-29T06:37:12.821Z,95150.00
2023-06-29T06:38:12.825Z,95150.00
2023-06-29T06:39:12.805Z,95147.00
2023-06-29T06:40:12.816Z,95145.00
2023-06-29T06:41:12.771Z,95145.00
2023-06-29T06:42:12.828Z,95142.00
2023-06-29T06:43:12.813Z,95140.00
2023-06-29T06:44:12.747Z,95136.00
2023-06-29T06:45:12.783Z,95137.00
2023-06-29T06:46:12.778Z,95134.00
2023-06-29T06:47:14.601Z,95135.00
2023-06-29T06:48:12.796Z,95135.00
2023-06-29T06:49:12.796Z,95130.00
2023-06-29T06:50:12.848Z,95131.00
2023-06-29T06:51:12.867Z,95126.00
2023-06-29T06:52:12.870Z,95124.00
2023-06-29T06:53:12.950Z,95122.00
2023-06-29T06:54:12.945Z,95123.00
2023-06-29T06:55:13.019Z,95122.00
2023-06-29T06:56:13.059Z,95120.00
2023-06-29T06:57:13.076Z,95121.00
2023-06-29T06:58:13.082Z,95117.00
2023-06-29T06:59:13.119Z,95111.00
2023-06-29T07:00:13.171Z,95115.00
2023-06-29T07:01:13.217Z,95109.00
2023-06-29T07:02:13.327Z,95109.00
2023-06-29T07:03:13.239Z,95107.00
2023-06-29T07:04:13.237Z,95106.00
2023-06-29T07:05:13.292Z,95107.00
2023-06-29T07:06:13.334Z,95103.00
2023-06-29T07:07:13.382Z,95099.00
2023-06-29T07:08:13.351Z,95098.00
2023-06-29T07:09:14.449Z,95095.00
2023-06-29T07:10:13.422Z,95090.00
2023-06-29T07:11:13.445Z,95087.00
2023-06-29T07:12:13.480Z,95088.00
2023-06-29T07:13:13.515Z,95085.00
2023-06-29T07:14:13.533Z,95084.00
2023-06-29T07:15:13.582Z,95083.00
2023-06-29T07:16:13.604Z,95079.00
2023-06-29T07:17:13.706Z,95080.00
2023-06-29T07:18:13.794Z,95078.00
2023-06-29T07:21:17.516Z,95070.00
2023-06-29T07:24:14.766Z,95066.00
2023-06-29T07:25:13.865Z,95065.00
2023-06-29T07:26:13.749Z,95062.00
2023-06-29T07:27:13.694Z,95062.00
2023-06-29T07:28:13.737Z,95060.00
2023-06-29T07:29:13.684Z,95056.00
2023-06-29T07:30:13.688Z,95060.00
2023-06-29T07:31:13.721Z,95058.00
2023-06-29T07:32:13.694Z,95058.00
2023-06-29T07:33:13.737Z,95059.00
2023-06-29T07:34:13.681Z,95056.00
2023-06-29T07:35:13.636Z,95054.00
2023-06-29T07:36:13.645Z,95055.00
2023-06-29T07:37:13.630Z,95054.00
2023-06-29T07:38:13.662Z,95052.00
2023-06-29T07:39:13.636Z,95049.00
2023-06-29T07:40:13.658Z,95048.00
2023-06-29T07:41:13.628Z,95044.00
2023-06-29T07:42:16.825Z,95046.00
2023-06-29T07:43:14.636Z,95045.00
2023-06-29T07:44:13.609Z,95041.00
2023-06-29T07:45:13.563Z,95042.00
2023-06-29T07:46:13.619Z,95038.00
2023-06-29T07:47:13.615Z,95038.00
2023-06-29T07:48:13.678Z,95036.00
2023-06-29T07:49:13.592Z,95032.00
2023-06-29T07:50:13.578Z,95031.00
2023-06-29T07:51:13.561Z,95028.00
2023-06-29T07:52:13.602Z,95027.00
2023-06-29T07:53:13.574Z,95026.00
2023-06-29T07:54:13.569Z,95025.00
2023-06-29T07:55:13.619Z,95026.00
2023-06-29T07:56:13.519Z,95024.00
2023-06-29T07:59:13.485Z,95023.00
2023-06-29T08:00:13.486Z,95024.00
2023-06-29T08:01:13.493Z,95020.00
2023-06-29T08:02:13.558Z,95020.00
2023-06-29T08:03:13.512Z,95016.00
2023-06-29T08:04:13.519Z,95015.00
2023-06-29T08:07:13.514Z,95010.00
2023-06-29T08:08:13.675Z,95011.00
2023-06-29T08:09:13.422Z,95008.00
2023-06-29T08:10:13.422Z,95005.00
2023-06-29T08:11:13.402Z,95003.00
2023-06-29T08:12:13.442Z,95003.00
2023-06-29T08:13:13.441Z,95003.00
2023-06-29T08:14:13.408Z,94998.00
2023-06-29T08:15:13.381Z,94997.00
2023-06-29T08:16:13.384Z,94996.00
2023-06-29T08:17:13.368Z,94992.00
2023-06-29T08:18:13.668Z,94990.00
2023-06-29T08:19:13.349Z,94987.00
2023-06-29T08:20:13.432Z,94987.00
2023-06-29T08:21:13.320Z,94984.00
2023-06-29T08:22:13.315Z,94986.00
2023-06-29T08:23:13.378Z,94984.00
2023-06-29T08:24:15.175Z,94982.00
2023-06-29T08:25:13.321Z,94983.00
2023-06-29T08:26:13.394Z,94978.00
2023-06-29T08:27:13.281Z,94976.00
2023-06-29T08:28:13.363Z,94976.00
2023-06-29T08:29:13.264Z,94974.00
2023-06-29T08:30:13.274Z,94971.00
2023-06-29T08:31:13.285Z,94971.00
2023-06-29T08:32:13.312Z,94968.00
2023-06-29T08:33:13.392Z,94968.00
2023-06-29T08:34:13.289Z,94965.00
2023-06-29T08:35:13.217Z,94966.00
2023-06-29T08:36:13.193Z,94963.00
2023-06-29T08:37:13.258Z,94966.00
2023-06-29T08:38:13.214Z,94962.00
2023-06-29T08:39:13.192Z,94962.00
2023-06-29T08:40:13.204Z,94961.00
2023-06-29T08:41:13.251Z,94959.00
2023-06-29T08:42:13.175Z,94956.00
2023-06-29T08:43:13.179Z,94955.00
2023-06-29T08:44:13.202Z,94952.00
2023-06-29T08:45:13.171Z,94950.00
2023-06-29T08:46:13.157Z,94949.00
2023-06-29T08:47:13.162Z,94948.00
2023-06-29T08:48:13.136Z,94946.00
2023-06-29T08:49:13.122Z,94947.00
2023-06-29T08:50:13.098Z,94944.00
2023-06-29T08:51:13.111Z,94942.00
2023-06-29T08:52:13.076Z,94942.00
2023-06-29T08:53:13.143Z,94936.00
2023-06-29T08:54:13.079Z,94933.00
2023-06-29T08:55:13.094Z,94932.00
2023-06-29T08:56:13.055Z,94930.00
2023-06-29T08:57:13.071Z,94925.00
2023-06-29T08:58:13.067Z,94925.00
2023-06-29T08:59:13.063Z,94923.00
2023-06-29T09:00:13.072Z,94924.00
2023-06-29T09:01:13.133Z,94922.00
2023-06-29T09:02:13.092Z,94921.00
2023-06-29T09:03:13.123Z,94920.00
2023-06-29T09:04:13.119Z,94919.00
2023-06-29T09:05:13.031Z,94918.00
2023-06-29T09:06:13.022Z,94917.00
2023-06-29T09:07:13.008Z,94915.00
2023-06-29T09:08:12.986Z,94912.00
2023-06-29T09:09:12.990Z,94913.00
2023-06-29T09:10:12.976Z,94913.00
2023-06-29T09:11:12.988Z,94909.00
2023-06-29T09:12:12.968Z,94909.00
2023-06-29T09:13:12.950Z,94907.00
2023-06-29T09:14:12.955Z,94907.00
2023-06-29T09:15:12.944Z,94905.00
2023-06-29T09:16:13.002Z,94905.00
2023-06-29T09:17:12.919Z,94902.00
2023-06-29T09:18:12.982Z,94900.00
2023-06-29T09:19:12.934Z,94899.00
2023-06-29T09:20:12.901Z,94898.00
2023-06-29T09:21:12.886Z,94899.00
2023-06-29T09:22:12.900Z,94896.00
2023-06-29T09:23:12.888Z,94895.00
2023-06-29T09:24:12.917Z,94893.00
2023-06-29T09:25:19.733Z,94891.00
2023-06-29T09:26:13.955Z,94887.00
2023-06-29T09:27:12.841Z,94885.00
2023-06-29T09:28:12.848Z,94883.00
2023-06-29T09:29:12.882Z,94881.00
2023-06-29T09:30:12.831Z,94877.00
2023-06-29T09:31:12.886Z,94874.00
2023-06-29T09:32:12.828Z,94874.00
2023-06-29T09:33:12.832Z,94871.00
2023-06-29T09:34:12.798Z,94871.00
2023-06-29T09:35:12.822Z,94868.00
2023-06-29T09:36:12.795Z,94867.00
2023-06-29T09:37:12.783Z,94867.00
2023-06-29T09:38:12.770Z,94865.00
2023-06-29T09:39:12.771Z,94863.00
2023-06-29T09:40:12.854Z,94861.00
2023-06-29T09:41:15.051Z,94860.00
2023-06-29T09:42:12.868Z,94859.00
2023-06-29T09:43:12.854Z,94855.00
2023-06-29T09:44:12.854Z,94853.00
2023-06-29T09:45:12.894Z,94853.00
2023-06-29T09:46:12.938Z,94855.00
2023-06-29T09:49:13.046Z,94847.00
2023-06-29T09:50:13.004Z,94842.00
2023-06-29T09:51:12.998Z,94842.00
2023-06-29T09:52:12.924Z,94840.00
2023-06-29T09:53:12.940Z,94840.00
2023-06-29T09:54:12.927Z,94835.00
2023-06-29T09:55:12.899Z,94833.00
2023-06-29T09:56:12.899Z,94832.00
2023-06-29T09:57:12.872Z,94829.00
2023-06-29T09:58:12.903Z,94827.00
2023-06-29T09:59:12.901Z,94825.00
2023-06-29T10:00:12.857Z,94823.00
2023-06-29T10:01:12.926Z,94824.00
2023-06-29T10:02:12.913Z,94824.00
2023-06-29T10:03:12.975Z,94821.00
2023-06-29T10:04:12.903Z,94820.00
2023-06-29T10:05:12.827Z,94818.00
2023-06-29T10:06:12.818Z,94815.00
2023-06-29T10:07:12.893Z,94815.00
2023-06-29T10:08:12.808Z,94812.00
2023-06-29T10:09:12.815Z,94809.00
2023-06-29T10:10:12.780Z,94807.00
2023-06-29T10:11:12.804Z,94806.00
2023-06-29T10:12:12.811Z,94805.00
2023-06-29T10:13:13.244Z,94801.00
2023-06-29T10:14:12.806Z,94799.00
2023-06-29T10:15:12.756Z,94800.00
2023-06-29T10:16:12.776Z,94796.00
2023-06-29T10:17:14.947Z,94792.00
2023-06-29T10:18:12.823Z,94791.00
2023-06-29T10:19:12.766Z,94791.00
2023-06-29T10:20:12.880Z,94789.00
2023-06-29T10:21:12.893Z,94786.00
2023-06-29T10:22:12.850Z,94785.00
2023-06-29T10:23:12.882Z,94783.00
2023-06-29T10:24:12.869Z,94782.00
2023-06-29T10:25:12.891Z,94781.00
2023-06-29T10:26:12.911Z,94780.00
2023-06-29T10:27:12.929Z,94778.00
2023-06-29T10:28:12.964Z,94776.00
2023-06-29T10:29:12.979Z,94776.00
2023-06-29T10:30:13.011Z,94776.00
2023-06-29T10:31:13.084Z,94776.00
2023-06-29T10:32:13.064Z,94773.00
2023-06-29T10:33:13.100Z,94771.00
2023-06-29T10:34:13.114Z,94771.00
2023-06-29T10:35:13.279Z,94768.00
2023-06-29T10:36:13.223Z,94766.00
2023-06-29T10:37:13.212Z,94765.00
2023-06-29T10:38:13.231Z,94764.00
2023-06-29T10:39:13.253Z,94761.00
2023-06-29T10:40:13.311Z,94764.00
2023-06-29T10:41:13.317Z,94762.00
2023-06-29T10:42:13.359Z,94758.00
2023-06-29T10:43:13.385Z,94757.00
2023-06-29T10:44:13.369Z,94755.00
2023-06-29T10:45:13.416Z,94755.00
2023-06-29T10:46:13.546Z,94752.00
2023-06-29T10:47:13.483Z,94752.00
2023-06-29T10:48:16.808Z,94750.00
2023-06-29T10:49:14.507Z,94751.00
2023-06-29T10:50:13.477Z,94751.00
2023-06-29T10:51:13.510Z,94749.00
2023-06-29T10:52:13.487Z,94749.00
2023-06-29T10:53:13.500Z,94746.00
2023-06-29T10:54:13.464Z,94743.00
2023-06-29T10:55:13.465Z,94743.00
2023-06-29T10:56:13.450Z,94740.00
2023-06-29T10:57:13.438Z,94741.00
2023-06-29T10:58:13.428Z,94739.00
2023-06-29T10:59:13.899Z,94737.00
2023-06-29T11:00:14.442Z,94739.00
2023-06-29T11:01:13.591Z,94735.00
2023-06-29T11:02:13.520Z,94735.00
2023-06-29T11:03:13.479Z,94732.00
2023-06-29T11:04:13.452Z,94730.00
2023-06-29T11:05:13.390Z,94728.00
2023-06-29T11:06:24.892Z,94727.00
2023-06-29T11:07:14.400Z,94724.00
2023-06-29T11:08:13.408Z,94721.00
2023-06-29T11:09:13.332Z,94718.00
2023-06-29T11:10:13.343Z,94720.00
2023-06-29T11:11:13.352Z,94719.00
2023-06-29T11:12:15.663Z,94713.00
2023-06-29T11:13:13.377Z,94710.00
2023-06-29T11:14:13.368Z,94710.00
2023-06-29T11:16:14.515Z,94707.00
2023-06-29T11:17:13.406Z,94707.00
2023-06-29T11:18:13.424Z,94705.00
2023-06-29T11:19:13.825Z,94702.00
2023-06-29T11:20:13.391Z,94700.00
2023-06-29T11:21:13.354Z,94700.00
2023-06-29T11:22:13.364Z,94700.00
2023-06-29T11:23:13.341Z,94697.00
2023-06-29T11:24:13.341Z,94697.00
2023-06-29T11:25:13.340Z,94696.00
2023-06-29T11:26:13.327Z,94695.00
2023-06-29T11:27:13.316Z,94693.00
2023-06-29T11:28:13.324Z,94691.00
2023-06-29T11:29:13.302Z,94689.00
2023-06-29T11:30:13.285Z,94687.00
2023-06-29T11:31:13.325Z,94683.00
2023-06-29T11:32:13.455Z,94681.00
2023-06-29T11:34:14.252Z,94681.00
2023-06-29T11:35:13.277Z,94679.00
2023-06-29T11:36:13.316Z,94678.00
2023-06-29T11:37:15.852Z,94674.00
2023-06-29T11:38:13.362Z,94673.00
2023-06-29T11:39:13.231Z,94674.00
2023-06-29T11:40:13.224Z,94673.00
2023-06-29T11:41:13.745Z,94672.00
2023-06-29T11:42:13.213Z,94670.00
2023-06-29T11:43:13.213Z,94666.00
2023-06-29T11:44:15.305Z,94669.00
2023-06-29T11:45:13.221Z,94666.00
2023-06-29T11:46:13.279Z,94662.00
2023-06-29T11:48:14.266Z,94657.00
2023-06-29T11:49:13.163Z,94658.00
2023-06-29T11:50:13.192Z,94654.00
2023-06-29T11:51:13.131Z,94654.00
2023-06-29T11:52:13.124Z,94652.00
2023-06-29T11:53:13.152Z,94650.00
2023-06-29T11:54:13.129Z,94648.00
2023-06-29T11:55:13.123Z,94645.00
2023-06-29T11:56:13.149Z,94646.00
2023-06-29T11:57:13.142Z,94643.00